Weather History for KDEH - January, 2013

Change the Weather History Date:

Friday, January 25, 2013

  Actual Average Record
Temperature  
Mean Temperature 16 °F -  
Max Temperature 24 °F 26 °F 33 °F (2014)
Min Temperature 8 °F 7 °F 3 °F (2014)
Degree Days  
Heating Degree Days 49    
Moisture  
Dew Point 7 °F    
Average Humidity 66    
Maximum Humidity 79    
Minimum Humidity 46    
Precipitation  
Precipitation 0.00 in - - ()
Sea Level Pressure  
Sea Level Pressure 30.07 in    
Wind  
Wind Speed 10 mph (West)    
Max Wind Speed 24 mph    
Max Gust Speed 33 mph    
Visibility 9 miles    
Events Snow    
Averages and records for this station are not official NWS values.
T = Trace of Precipitation, MM = Missing Value Source: NWS Daily Summary

Daily Weather History Graph

Daily Weather History Graph

Search for Another Location

Airport or City:

Trip Planner

Search our weather history database for the weather conditions in past years. The results will help you decide how hot, cold, wet, or windy it might be!

Date:

Astronomy

Jan. 25, 2013 Rise Set
Actual Time 7:29 AM CST 5:10 PM CST
Civil Twilight 6:58 AM CST 5:40 PM CST
Nautical Twilight 6:23 AM CST 6:15 PM CST
Astronomical Twilight 5:50 AM CST 6:49 PM CST
Moon 4:07 PM CST (1/25) 6:09 AM CST (1/25)
Length of Visible Light 10h 42m
Length of Day
9h 40m
Waxing Gibbous, 98% of the Moon is Illuminated
Jan 25
Waxing Gibbous
Jan 26
Full
Feb 3
Last Quarter
Feb 10
New
Feb 17
First Quarter

Hourly Weather History & Observations

Time (CST) Temp. Windchill Dew Point Humidity Pressure Visibility Wind Dir Wind Speed Gust Speed Precip Events Conditions
12:15 AM 15.8 °F 5.1 °F 5.0 °F 62% 30.19 in 10.0 mi SSE 8.1 mph 15.0 mph N/A   Overcast
12:35 AM 15.8 °F 4.2 °F 5.0 °F 62% 30.18 in 10.0 mi SSE 9.2 mph 15.0 mph N/A   Overcast
12:55 AM 15.8 °F 5.1 °F 5.0 °F 62% 30.18 in 10.0 mi South 8.1 mph 13.8 mph N/A   Mostly Cloudy
1:15 AM 15.8 °F 5.1 °F 6.8 °F 68% 30.15 in 10.0 mi SSE 8.1 mph - N/A   Overcast
1:35 AM 15.8 °F 5.1 °F 6.8 °F 68% 30.13 in 10.0 mi SSE 8.1 mph - N/A   Overcast
1:55 AM 17.6 °F 7.3 °F 6.8 °F 63% 30.14 in 10.0 mi South 8.1 mph 15.0 mph N/A   Unknown
2:15 AM 17.6 °F 6.4 °F 6.8 °F 63% 30.13 in 10.0 mi South 9.2 mph - N/A   Overcast
2:35 AM 17.6 °F 9.3 °F 10.4 °F 73% 30.13 in 3.0 mi Variable 5.8 mph - N/A Snow Light Snow
2:55 AM 17.6 °F 10.7 °F 10.4 °F 73% 30.13 in 3.0 mi Variable 4.6 mph - N/A Snow Light Snow
3:15 AM 17.6 °F 7.3 °F 12.2 °F 79% 30.10 in 7.0 mi South 8.1 mph 15.0 mph N/A Snow Light Snow
3:35 AM 17.6 °F 8.2 °F 12.2 °F 79% 30.09 in 10.0 mi SSW 6.9 mph 15.0 mph N/A   Mostly Cloudy
3:55 AM 17.6 °F 8.2 °F 12.2 °F 79% 30.08 in 4.0 mi Variable 6.9 mph 13.8 mph N/A Snow Light Snow
4:15 AM 17.6 °F 6.4 °F 12.2 °F 79% 30.06 in 2.5 mi SSW 9.2 mph - N/A Snow Light Snow
4:35 AM 17.6 °F 5.7 °F 12.2 °F 79% 30.05 in 10.0 mi SSW 10.4 mph - N/A   Overcast
4:55 AM 17.6 °F 9.3 °F 12.2 °F 79% 30.06 in 10.0 mi SW 5.8 mph - N/A   Overcast
5:15 AM 17.6 °F 7.3 °F 12.2 °F 79% 30.04 in 10.0 mi SSW 8.1 mph 13.8 mph N/A   Overcast
5:35 AM 17.6 °F 6.4 °F 10.4 °F 73% 30.04 in 10.0 mi SW 9.2 mph 16.1 mph N/A   Overcast
6:15 AM 19.4 °F 9.5 °F 10.4 °F 68% 30.02 in 10.0 mi SW 8.1 mph - N/A   Overcast
6:35 AM 17.6 °F 7.3 °F 10.4 °F 73% 30.01 in 10.0 mi SW 8.1 mph 15.0 mph N/A   Overcast
6:55 AM 17.6 °F 9.3 °F 8.6 °F 68% 30.01 in 10.0 mi SW 5.8 mph 12.7 mph N/A   Scattered Clouds
7:35 AM 15.8 °F 4.2 °F 6.8 °F 68% 29.99 in 10.0 mi SW 9.2 mph - N/A   Clear
7:55 AM 15.8 °F 5.1 °F 6.8 °F 68% 29.99 in 10.0 mi SW 8.1 mph 15.0 mph N/A   Clear
8:15 AM 17.6 °F 8.2 °F 6.8 °F 63% 29.99 in 10.0 mi Variable 6.9 mph - N/A   Clear
8:35 AM 17.6 °F 8.2 °F 6.8 °F 63% 29.99 in 10.0 mi SW 6.9 mph 15.0 mph N/A   Clear
8:55 AM 17.6 °F 5.7 °F 6.8 °F 63% 29.99 in 10.0 mi SW 10.4 mph 17.3 mph N/A   Clear
9:15 AM 19.4 °F 8.6 °F 6.8 °F 58% 29.99 in 10.0 mi WSW 9.2 mph 19.6 mph N/A   Clear
9:35 AM 19.4 °F 7.9 °F 6.8 °F 58% 29.99 in 10.0 mi WSW 10.4 mph 23.0 mph N/A   Clear
9:55 AM 19.4 °F 6.6 °F 6.8 °F 58% 29.99 in 10.0 mi West 12.7 mph 20.7 mph N/A   Clear
10:15 AM 19.4 °F 8.6 °F 8.6 °F 63% 29.98 in 10.0 mi West 9.2 mph 18.4 mph N/A   Mostly Cloudy
10:35 AM 19.4 °F 6.6 °F 10.4 °F 68% 29.98 in 10.0 mi WSW 12.7 mph 18.4 mph N/A   Overcast
10:55 AM 19.4 °F 7.9 °F 10.4 °F 68% 29.97 in 10.0 mi West 10.4 mph - N/A   Overcast
11:15 AM 19.4 °F 11.5 °F 12.2 °F 74% 29.97 in 10.0 mi Variable 5.8 mph 19.6 mph N/A   Overcast
11:35 AM 21.2 °F 12.6 °F 14.0 °F 74% 29.96 in 10.0 mi West 6.9 mph 15.0 mph N/A   Overcast
11:55 AM 23.0 °F 13.1 °F 14.0 °F 68% 29.95 in 10.0 mi West 9.2 mph 16.1 mph N/A   Overcast
12:15 PM 23.0 °F 13.1 °F 14.0 °F 68% 29.95 in 9.0 mi WNW 9.2 mph 20.7 mph N/A Snow Light Snow
12:35 PM 23.0 °F 10.1 °F 14.0 °F 68% 29.95 in 10.0 mi West 15.0 mph 21.9 mph N/A Snow Light Snow
12:55 PM 23.0 °F 10.1 °F 14.0 °F 68% 29.95 in 9.0 mi WNW 15.0 mph 24.2 mph N/A   Overcast
1:15 PM 23.0 °F 13.1 °F 15.8 °F 74% 29.95 in 7.0 mi West 9.2 mph 25.3 mph N/A Snow Light Snow
1:35 PM 24.8 °F 11.1 °F 15.8 °F 69% 29.96 in 9.0 mi WNW 18.4 mph 28.8 mph N/A Snow Light Snow
1:55 PM 23.0 °F 10.1 °F 15.8 °F 74% 29.97 in 3.0 mi WNW 15.0 mph 29.9 mph N/A Snow Light Snow
2:15 PM 23.0 °F 8.7 °F 8.6 °F 54% 29.98 in 10.0 mi WNW 18.4 mph 28.8 mph N/A   Mostly Cloudy
2:35 PM 23.0 °F 10.6 °F 8.6 °F 54% 29.98 in 10.0 mi NW 13.8 mph 28.8 mph N/A   Scattered Clouds
2:55 PM 23.0 °F 6.9 °F 5.0 °F 46% 29.98 in 10.0 mi NW 24.2 mph 33.4 mph N/A   Partly Cloudy
3:15 PM 21.2 °F 6.0 °F 5.0 °F 50% 29.99 in 10.0 mi NW 19.6 mph 28.8 mph N/A   Clear
3:35 PM 21.2 °F 7.8 °F 5.0 °F 50% 30.01 in 10.0 mi WNW 15.0 mph 27.6 mph N/A   Clear
3:55 PM 21.2 °F 9.5 °F 5.0 °F 50% 30.02 in 10.0 mi NW 11.5 mph 23.0 mph N/A   Partly Cloudy
4:15 PM 19.4 °F 4.5 °F 5.0 °F 54% 30.02 in 10.0 mi NW 17.3 mph 25.3 mph N/A   Partly Cloudy
4:35 PM 19.4 °F 4.5 °F 5.0 °F 54% 30.04 in 10.0 mi NW 17.3 mph 24.2 mph N/A   Partly Cloudy
4:55 PM 17.6 °F 5.0 °F 5.0 °F 58% 30.05 in 10.0 mi WNW 11.5 mph 20.7 mph N/A   Scattered Clouds
5:15 PM 17.6 °F 5.7 °F 5.0 °F 58% 30.05 in 10.0 mi WNW 10.4 mph 20.7 mph N/A   Scattered Clouds
5:35 PM 15.8 °F 3.4 °F 5.0 °F 62% 30.07 in 10.0 mi WNW 10.4 mph - N/A   Clear
5:55 PM 15.8 °F 3.4 °F 3.2 °F 58% 30.08 in 10.0 mi WNW 10.4 mph 17.3 mph N/A   Partly Cloudy
6:15 PM 15.8 °F 3.4 °F 3.2 °F 58% 30.09 in 10.0 mi NW 10.4 mph 18.4 mph N/A   Scattered Clouds
6:35 PM 14.0 °F 2.0 °F 3.2 °F 62% 30.11 in 10.0 mi NW 9.2 mph - N/A   Scattered Clouds
6:55 PM 14.0 °F 3.9 °F 3.2 °F 62% 30.12 in 10.0 mi NW 6.9 mph 18.4 mph N/A   Scattered Clouds
7:15 PM 14.0 °F 0.5 °F 3.2 °F 62% 30.12 in 10.0 mi NW 11.5 mph - N/A   Scattered Clouds
7:35 PM 14.0 °F -0.2 °F 3.2 °F 62% 30.12 in 10.0 mi NW 12.7 mph 18.4 mph N/A   Scattered Clouds
7:55 PM 12.2 °F -2.5 °F 3.2 °F 67% 30.14 in 10.0 mi NW 12.7 mph - N/A   Scattered Clouds
8:15 PM 12.2 °F -2.5 °F 1.4 °F 62% 30.15 in 10.0 mi NW 12.7 mph - N/A   Mostly Cloudy
8:35 PM 12.2 °F -1.0 °F 1.4 °F 62% 30.16 in 10.0 mi NW 10.4 mph 17.3 mph N/A   Overcast
8:55 PM 10.4 °F -3.3 °F 1.4 °F 67% 30.16 in 10.0 mi NW 10.4 mph 17.3 mph N/A   Overcast
9:15 PM 10.4 °F -3.3 °F 1.4 °F 67% 30.17 in 10.0 mi NW 10.4 mph - N/A   Overcast
9:35 PM 10.4 °F -3.3 °F 1.4 °F 67% 30.18 in 10.0 mi NNW 10.4 mph - N/A   Mostly Cloudy
9:55 PM 10.4 °F -2.4 °F 1.4 °F 67% 30.20 in 10.0 mi NW 9.2 mph - N/A   Scattered Clouds
10:15 PM 10.4 °F -4.8 °F 1.4 °F 67% 30.20 in 10.0 mi NNW 12.7 mph 18.4 mph N/A   Partly Cloudy
10:35 PM 8.6 °F -5.5 °F 1.4 °F 73% 30.20 in 10.0 mi NW 10.4 mph - N/A   Clear
10:55 PM 8.6 °F -3.7 °F 1.4 °F 73% 30.22 in 10.0 mi NW 8.1 mph - N/A   Clear
11:15 PM 8.6 °F -1.3 °F -0.4 °F 67% 30.23 in 10.0 mi NW 5.8 mph - N/A   Clear
11:35 PM 8.6 °F -2.6 °F -0.4 °F 67% 30.23 in 10.0 mi NW 6.9 mph - N/A   Clear
11:55 PM 8.6 °F -2.6 °F -0.4 °F 67% 30.23 in 10.0 mi NW 6.9 mph - N/A   Clear